Time,TemperatureF,DewpointF,PressureIn,WindDirection,WindDirectionDegrees,WindSpeedMPH,WindSpeedGustMPH,Humidity,HourlyPrecipIn,Conditions,Clouds,dailyrainin,SoftwareType,DateUTC
2013-05-25 00:00:00,62.9,52.6,30.16,NNE,22,2.0,5.0,69,0.00,,,0.00,WeatherTracker,2013-05-25 05:00:00,
2013-05-25 00:05:00,62.9,52.6,30.16,NE,43,0.0,5.0,69,0.00,,,0.00,WeatherTracker,2013-05-25 05:05:00,
2013-05-25 00:10:00,62.8,52.1,30.16,NE,38,1.0,4.0,68,0.00,,,0.00,WeatherTracker,2013-05-25 05:10:00,
2013-05-25 00:20:00,62.8,52.1,30.16,ENE,59,1.0,4.0,68,0.00,,,0.00,WeatherTracker,2013-05-25 05:20:00,
2013-05-25 00:25:00,62.8,51.7,30.16,ENE,74,2.0,5.0,67,0.00,,,0.00,WeatherTracker,2013-05-25 05:25:00,
2013-05-25 00:30:00,62.7,51.6,30.16,NE,55,1.0,5.0,67,0.00,,,0.00,WeatherTracker,2013-05-25 05:30:00,
2013-05-25 00:35:00,62.7,51.6,30.16,NE,55,2.0,4.0,67,0.00,,,0.00,WeatherTracker,2013-05-25 05:35:00,
2013-05-25 00:45:00,62.5,51.4,30.16,NE,54,1.0,4.0,67,0.00,,,0.00,WeatherTracker,2013-05-25 05:45:00,
2013-05-25 00:50:00,62.3,51.6,30.16,ENE,59,3.0,4.0,68,0.00,,,0.00,WeatherTracker,2013-05-25 05:50:00,
2013-05-25 00:55:00,62.1,51.4,30.16,ENE,59,0.0,4.0,68,0.00,,,0.00,WeatherTracker,2013-05-25 05:55:00,
2013-05-25 01:05:00,61.6,51.3,30.16,ENE,63,2.0,3.0,69,0.00,,,0.00,WeatherTracker,2013-05-25 06:05:00,
2013-05-25 01:15:00,61.1,50.8,30.15,NE,46,2.0,3.0,69,0.00,,,0.00,WeatherTracker,2013-05-25 06:15:00,
2013-05-25 01:20:00,60.9,50.3,30.15,NE,49,2.0,4.0,68,0.00,,,0.00,WeatherTracker,2013-05-25 06:20:00,
2013-05-25 01:30:00,60.4,50.2,30.15,ENE,59,4.0,5.0,69,0.00,,,0.00,WeatherTracker,2013-05-25 06:30:00,
2013-05-25 01:40:00,60.2,49.6,30.15,ENE,75,2.0,5.0,68,0.00,,,0.00,WeatherTracker,2013-05-25 06:40:00,
2013-05-25 01:45:00,60.0,49.8,30.15,NE,51,3.0,5.0,69,0.00,,,0.00,WeatherTracker,2013-05-25 06:45:00,
2013-05-25 01:50:00,59.8,49.6,30.15,NE,51,2.0,3.0,69,0.00,,,0.00,WeatherTracker,2013-05-25 06:50:00,
2013-05-25 02:00:00,59.3,49.9,30.15,NE,51,0.0,3.0,71,0.00,,,0.00,WeatherTracker,2013-05-25 07:00:00,
2013-05-25 02:10:00,58.8,49.8,30.15,NE,51,1.0,3.0,72,0.00,,,0.00,WeatherTracker,2013-05-25 07:10:00,
2013-05-25 02:15:00,58.5,49.5,30.15,NE,51,2.0,3.0,72,0.00,,,0.00,WeatherTracker,2013-05-25 07:15:00,
2013-05-25 02:20:00,58.3,49.7,30.15,NE,51,3.0,3.0,73,0.00,,,0.00,WeatherTracker,2013-05-25 07:20:00,
2013-05-25 02:30:00,57.9,50.0,30.15,NE,51,2.0,4.0,75,0.00,,,0.00,WeatherTracker,2013-05-25 07:30:00,
2013-05-25 02:40:00,57.5,49.6,30.15,NE,51,1.0,3.0,75,0.00,,,0.00,WeatherTracker,2013-05-25 07:40:00,
2013-05-25 02:50:00,57.1,49.6,30.15,NE,51,0.0,2.0,76,0.00,,,0.00,WeatherTracker,2013-05-25 07:50:00,
2013-05-25 03:00:00,56.6,49.1,30.15,NE,51,0.0,2.0,76,0.00,,,0.00,WeatherTracker,2013-05-25 08:00:00,
2013-05-25 03:05:00,56.3,49.2,30.15,NE,51,0.0,2.0,77,0.00,,,0.00,WeatherTracker,2013-05-25 08:05:00,
2013-05-25 03:15:00,56.1,49.0,30.15,NE,51,0.0,2.0,77,0.00,,,0.00,WeatherTracker,2013-05-25 08:15:00,
2013-05-25 03:20:00,56.1,49.0,30.16,NE,51,0.0,3.0,77,0.00,,,0.00,WeatherTracker,2013-05-25 08:20:00,
2013-05-25 03:30:00,55.9,48.8,30.16,NE,51,0.0,2.0,77,0.00,,,0.00,WeatherTracker,2013-05-25 08:30:00,
2013-05-25 03:40:00,55.6,48.8,30.16,NE,51,0.0,0.0,78,0.00,,,0.00,WeatherTracker,2013-05-25 08:40:00,
2013-05-25 03:45:00,55.5,48.4,30.16,NE,51,0.0,2.0,77,0.00,,,0.00,WeatherTracker,2013-05-25 08:45:00,
2013-05-25 03:50:00,55.4,48.3,30.16,NE,51,0.0,2.0,77,0.00,,,0.00,WeatherTracker,2013-05-25 08:50:00,
2013-05-25 04:00:00,55.2,48.5,30.16,NE,51,0.0,0.0,78,0.00,,,0.00,WeatherTracker,2013-05-25 09:00:00,
2013-05-25 04:05:00,55.1,48.4,30.17,NE,51,0.0,0.0,78,0.00,,,0.00,WeatherTracker,2013-05-25 09:05:00,
2013-05-25 04:10:00,55.1,48.4,30.17,NE,51,0.0,0.0,78,0.00,,,0.00,WeatherTracker,2013-05-25 09:10:00,
2013-05-25 04:20:00,54.8,48.4,30.17,NE,51,0.0,0.0,79,0.00,,,0.00,WeatherTracker,2013-05-25 09:20:00,
2013-05-25 04:25:00,54.7,48.3,30.17,NE,51,0.0,0.0,79,0.00,,,0.00,WeatherTracker,2013-05-25 09:25:00,
2013-05-25 04:30:00,54.5,48.5,30.17,NE,51,1.0,3.0,80,0.00,,,0.00,WeatherTracker,2013-05-25 09:30:00,
2013-05-25 04:35:00,54.5,48.5,30.18,NE,51,0.0,3.0,80,0.00,,,0.00,WeatherTracker,2013-05-25 09:35:00,
2013-05-25 04:40:00,54.3,48.6,30.18,NE,51,2.0,3.0,81,0.00,,,0.00,WeatherTracker,2013-05-25 09:40:00,
2013-05-25 04:45:00,54.1,48.4,30.18,NE,51,2.0,3.0,81,0.00,,,0.00,WeatherTracker,2013-05-25 09:45:00,
2013-05-25 04:55:00,53.7,48.7,30.18,NE,51,2.0,4.0,83,0.00,,,0.00,WeatherTracker,2013-05-25 09:55:00,
2013-05-25 05:05:00,53.2,48.5,30.18,NE,51,2.0,4.0,84,0.00,,,0.00,WeatherTracker,2013-05-25 10:05:00,
2013-05-25 05:10:00,52.8,48.4,30.19,NE,51,2.0,4.0,85,0.00,,,0.00,WeatherTracker,2013-05-25 10:10:00,
2013-05-25 05:20:00,52.6,48.8,30.20,NE,51,3.0,4.0,87,0.00,,,0.00,WeatherTracker,2013-05-25 10:20:00,
2013-05-25 05:30:00,52.8,49.3,30.20,NE,51,3.0,4.0,88,0.00,,,0.00,WeatherTracker,2013-05-25 10:30:00,
2013-05-25 05:35:00,52.9,49.4,30.20,NE,51,3.0,4.0,88,0.00,,,0.00,WeatherTracker,2013-05-25 10:35:00,
2013-05-25 05:45:00,52.8,49.3,30.21,NNE,30,1.0,4.0,88,0.00,,,0.00,WeatherTracker,2013-05-25 10:45:00,
2013-05-25 05:55:00,52.3,48.9,30.21,NNE,30,2.0,3.0,88,0.00,,,0.00,WeatherTracker,2013-05-25 10:55:00,
2013-05-25 06:05:00,51.9,48.8,30.22,NNE,31,1.0,4.0,89,0.00,,,0.00,WeatherTracker,2013-05-25 11:05:00,
2013-05-25 06:10:00,51.6,48.5,30.22,NNE,31,3.0,4.0,89,0.00,,,0.00,WeatherTracker,2013-05-25 11:10:00,
2013-05-25 06:15:00,51.4,48.6,30.22,NNE,29,2.0,4.0,90,0.00,,,0.00,WeatherTracker,2013-05-25 11:15:00,
2013-05-25 06:20:00,51.4,48.6,30.23,NE,36,2.0,4.0,90,0.00,,,0.00,WeatherTracker,2013-05-25 11:20:00,
2013-05-25 06:25:00,51.4,48.6,30.23,NE,37,2.0,4.0,90,0.00,,,0.00,WeatherTracker,2013-05-25 11:25:00,
2013-05-25 06:30:00,51.3,48.5,30.23,NE,37,1.0,3.0,90,0.00,,,0.00,WeatherTracker,2013-05-25 11:30:00,
2013-05-25 06:35:00,51.3,48.2,30.23,NE,37,1.0,3.0,89,0.00,,,0.00,WeatherTracker,2013-05-25 11:35:00,
2013-05-25 06:45:00,51.5,48.4,30.23,NE,37,1.0,3.0,89,0.00,,,0.00,WeatherTracker,2013-05-25 11:45:00,
2013-05-25 06:50:00,51.6,48.2,30.23,NE,37,0.0,3.0,88,0.00,,,0.00,WeatherTracker,2013-05-25 11:50:00,
2013-05-25 07:00:00,52.1,48.7,30.23,NE,40,2.0,4.0,88,0.00,,,0.00,WeatherTracker,2013-05-25 12:00:00,
2013-05-25 07:10:00,52.8,49.0,30.23,NE,39,3.0,4.0,87,0.00,,,0.00,WeatherTracker,2013-05-25 12:10:00,
2013-05-25 07:15:00,53.7,49.6,30.23,ENE,59,2.0,5.0,86,0.00,,,0.00,WeatherTracker,2013-05-25 12:15:00,
2013-05-25 07:25:00,55.3,49.6,30.23,NE,40,4.0,5.0,81,0.00,,,0.00,WeatherTracker,2013-05-25 12:25:00,
2013-05-25 07:30:00,56.0,49.9,30.23,ENE,58,3.0,6.0,80,0.00,,,0.00,WeatherTracker,2013-05-25 12:30:00,
2013-05-25 07:40:00,57.2,50.4,30.23,NE,40,4.0,6.0,78,0.00,,,0.00,WeatherTracker,2013-05-25 12:40:00,
2013-05-25 07:45:00,57.9,50.7,30.24,ENE,73,2.0,6.0,77,0.00,,,0.00,WeatherTracker,2013-05-25 12:45:00,
2013-05-25 07:50:00,58.6,51.1,30.24,East,94,4.0,6.0,76,0.00,,,0.00,WeatherTracker,2013-05-25 12:50:00,
2013-05-25 08:00:00,60.3,52.0,30.24,NE,36,3.0,5.0,74,0.00,,,0.00,WeatherTracker,2013-05-25 13:00:00,
2013-05-25 08:05:00,61.5,52.0,30.24,East,86,1.0,5.0,71,0.00,,,0.00,WeatherTracker,2013-05-25 13:05:00,
2013-05-25 08:10:00,63.1,52.4,30.24,ENE,66,3.0,5.0,68,0.00,,,0.00,WeatherTracker,2013-05-25 13:10:00,
2013-05-25 08:15:00,64.2,53.4,30.24,NE,45,1.0,5.0,68,0.00,,,0.00,WeatherTracker,2013-05-25 13:15:00,
2013-05-25 08:25:00,66.5,53.5,30.24,ESE,107,0.0,7.0,63,0.00,,,0.00,WeatherTracker,2013-05-25 13:25:00,
2013-05-25 08:30:00,67.4,53.9,30.25,East,90,4.0,7.0,62,0.00,,,0.00,WeatherTracker,2013-05-25 13:30:00,
2013-05-25 08:40:00,68.5,54.1,30.25,ENE,77,3.0,6.0,60,0.00,,,0.00,WeatherTracker,2013-05-25 13:40:00,
2013-05-25 08:50:00,70.4,53.4,30.25,East,85,2.0,7.0,55,0.00,,,0.00,WeatherTracker,2013-05-25 13:50:00,
2013-05-25 08:55:00,70.9,53.4,30.25,ENE,71,1.0,7.0,54,0.00,,,0.00,WeatherTracker,2013-05-25 13:55:00,
2013-05-25 09:05:00,72.4,53.2,30.25,East,83,3.0,6.0,51,0.00,,,0.00,WeatherTracker,2013-05-25 14:05:00,
2013-05-25 09:15:00,73.3,52.4,30.25,NE,53,3.0,6.0,48,0.00,,,0.00,WeatherTracker,2013-05-25 14:15:00,
2013-05-25 09:20:00,74.3,53.3,30.25,East,95,7.0,7.0,48,0.00,,,0.00,WeatherTracker,2013-05-25 14:20:00,
2013-05-25 09:25:00,74.6,52.4,30.25,NNE,25,2.0,7.0,46,0.00,,,0.00,WeatherTracker,2013-05-25 14:25:00,
2013-05-25 09:30:00,74.8,52.6,30.25,ENE,61,3.0,8.0,46,0.00,,,0.00,WeatherTracker,2013-05-25 14:30:00,
2013-05-25 09:40:00,75.7,52.2,30.25,SE,130,2.0,6.0,44,0.00,,,0.00,WeatherTracker,2013-05-25 14:40:00,
2013-05-25 09:45:00,76.2,53.3,30.25,SSE,151,2.0,6.0,45,0.00,,,0.00,WeatherTracker,2013-05-25 14:45:00,
2013-05-25 09:50:00,76.6,51.1,30.25,SE,137,0.0,7.0,41,0.00,,,0.00,WeatherTracker,2013-05-25 14:50:00,
2013-05-25 10:00:00,77.1,50.9,30.25,South,177,5.0,8.0,40,0.00,,,0.00,WeatherTracker,2013-05-25 15:00:00,
2013-05-25 10:10:00,78.2,51.2,30.25,SE,138,2.0,9.0,39,0.00,,,0.00,WeatherTracker,2013-05-25 15:10:00,
2013-05-25 10:15:00,78.5,50.8,30.24,SSE,152,2.0,9.0,38,0.00,,,0.00,WeatherTracker,2013-05-25 15:15:00,
2013-05-25 10:20:00,78.9,51.8,30.24,East,95,2.0,8.0,39,0.00,,,0.00,WeatherTracker,2013-05-25 15:20:00,
2013-05-25 10:25:00,79.4,50.8,30.24,South,176,6.0,7.0,37,0.00,,,0.00,WeatherTracker,2013-05-25 15:25:00,
2013-05-25 10:35:00,79.7,51.8,30.24,SE,139,4.0,8.0,38,0.00,,,0.00,WeatherTracker,2013-05-25 15:35:00,
2013-05-25 10:45:00,80.3,52.4,30.24,East,79,4.0,8.0,38,0.00,,,0.00,WeatherTracker,2013-05-25 15:45:00,
2013-05-25 10:50:00,80.7,51.2,30.24,East,81,3.0,8.0,36,0.00,,,0.00,WeatherTracker,2013-05-25 15:50:00,
2013-05-25 11:00:00,81.6,52.8,30.24,SW,218,5.0,7.0,37,0.00,,,0.00,WeatherTracker,2013-05-25 16:00:00,
2013-05-25 11:05:00,81.6,52.8,30.23,SW,225,2.0,7.0,37,0.00,,,0.00,WeatherTracker,2013-05-25 16:05:00,
2013-05-25 11:10:00,82.0,52.4,30.23,SSE,149,10.0,10.0,36,0.00,,,0.00,WeatherTracker,2013-05-25 16:10:00,
2013-05-25 11:20:00,81.5,51.9,30.23,SSE,167,4.0,11.0,36,0.00,,,0.00,WeatherTracker,2013-05-25 16:20:00,
2013-05-25 11:25:00,81.7,52.1,30.23,SSW,197,4.0,8.0,36,0.00,,,0.00,WeatherTracker,2013-05-25 16:25:00,
2013-05-25 11:30:00,82.5,51.3,30.23,ENE,74,1.0,7.0,34,0.00,,,0.00,WeatherTracker,2013-05-25 16:30:00,
2013-05-25 11:40:00,82.1,52.5,30.23,ESE,102,1.0,8.0,36,0.00,,,0.00,WeatherTracker,2013-05-25 16:40:00,
2013-05-25 11:45:00,83.3,52.0,30.23,SSW,208,6.0,9.0,34,0.00,,,0.00,WeatherTracker,2013-05-25 16:45:00,
2013-05-25 11:55:00,82.8,50.7,30.23,SSW,205,5.0,10.0,33,0.00,,,0.00,WeatherTracker,2013-05-25 16:55:00,
2013-05-25 12:05:00,82.8,50.7,30.23,SSE,165,1.0,10.0,33,0.00,,,0.00,WeatherTracker,2013-05-25 17:05:00,
2013-05-25 12:10:00,82.7,52.2,30.22,SSW,197,2.0,10.0,35,0.00,,,0.00,WeatherTracker,2013-05-25 17:10:00,
2013-05-25 12:15:00,83.6,52.2,30.22,ESE,117,2.0,9.0,34,0.00,,,0.00,WeatherTracker,2013-05-25 17:15:00,
2013-05-25 12:25:00,83.9,52.5,30.22,ENE,78,0.0,5.0,34,0.00,,,0.00,WeatherTracker,2013-05-25 17:25:00,
2013-05-25 12:30:00,84.5,51.4,30.22,East,92,6.0,9.0,32,0.00,,,0.00,WeatherTracker,2013-05-25 17:30:00,
2013-05-25 12:35:00,85.1,50.1,30.21,SSE,153,5.0,14.0,30,0.00,,,0.00,WeatherTracker,2013-05-25 17:35:00,
2013-05-25 12:45:00,84.4,48.6,30.21,SSW,199,0.0,9.0,29,0.00,,,0.00,WeatherTracker,2013-05-25 17:45:00,
2013-05-25 12:50:00,84.8,52.5,30.20,ESE,105,1.0,8.0,33,0.00,,,0.00,WeatherTracker,2013-05-25 17:50:00,
2013-05-25 12:55:00,85.6,49.7,30.21,ENE,64,3.0,8.0,29,0.00,,,0.00,WeatherTracker,2013-05-25 17:55:00,
2013-05-25 13:00:00,85.5,51.4,30.20,ESE,109,1.0,8.0,31,0.00,,,0.00,WeatherTracker,2013-05-25 18:00:00,
2013-05-25 13:05:00,86.0,50.9,30.20,ESE,115,1.0,7.0,30,0.00,,,0.00,WeatherTracker,2013-05-25 18:05:00,
2013-05-25 13:10:00,86.2,50.2,30.20,ESE,111,2.0,7.0,29,0.00,,,0.00,WeatherTracker,2013-05-25 18:10:00,
2013-05-25 13:20:00,86.1,51.0,30.20,East,95,6.0,9.0,30,0.00,,,0.00,WeatherTracker,2013-05-25 18:20:00,
2013-05-25 13:25:00,86.2,49.2,30.19,WNW,290,2.0,8.0,28,0.00,,,0.00,WeatherTracker,2013-05-25 18:25:00,
2013-05-25 13:35:00,86.7,49.7,30.18,ENE,67,3.0,7.0,28,0.00,,,0.00,WeatherTracker,2013-05-25 18:35:00,
2013-05-25 13:40:00,86.8,50.7,30.18,ENE,63,2.0,7.0,29,0.00,,,0.00,WeatherTracker,2013-05-25 18:40:00,
2013-05-25 13:50:00,87.1,50.9,30.18,South,183,3.0,7.0,29,0.00,,,0.00,WeatherTracker,2013-05-25 18:50:00,
2013-05-25 13:55:00,87.2,49.1,30.18,ENE,63,1.0,7.0,27,0.00,,,0.00,WeatherTracker,2013-05-25 18:55:00,
2013-05-25 14:05:00,87.4,49.3,30.18,SE,145,4.0,7.0,27,0.00,,,0.00,WeatherTracker,2013-05-25 19:05:00,
2013-05-25 14:10:00,87.2,50.1,30.17,South,179,2.0,7.0,28,0.00,,,0.00,WeatherTracker,2013-05-25 19:10:00,
2013-05-25 14:15:00,87.4,50.3,30.17,SE,143,7.0,7.0,28,0.00,,,0.00,WeatherTracker,2013-05-25 19:15:00,
2013-05-25 14:20:00,87.6,49.4,30.17,South,177,2.0,8.0,27,0.00,,,0.00,WeatherTracker,2013-05-25 19:20:00,
2013-05-25 14:30:00,88.0,49.8,30.16,ESE,110,4.0,7.0,27,0.00,,,0.00,WeatherTracker,2013-05-25 19:30:00,
2013-05-25 14:35:00,87.7,49.5,30.17,SSW,213,5.0,6.0,27,0.00,,,0.00,WeatherTracker,2013-05-25 19:35:00,
2013-05-25 14:40:00,87.5,48.4,30.17,WNW,288,0.0,6.0,26,0.00,,,0.00,WeatherTracker,2013-05-25 19:40:00,
2013-05-25 14:45:00,87.7,49.5,30.16,ESE,112,5.0,6.0,27,0.00,,,0.00,WeatherTracker,2013-05-25 19:45:00,
2013-05-25 14:55:00,88.1,48.9,30.16,South,175,7.0,9.0,26,0.00,,,0.00,WeatherTracker,2013-05-25 19:55:00,
2013-05-25 15:00:00,88.5,49.2,30.16,WSW,246,6.0,9.0,26,0.00,,,0.00,WeatherTracker,2013-05-25 20:00:00,
2013-05-25 15:05:00,88.9,49.5,30.16,SE,140,6.0,7.0,26,0.00,,,0.00,WeatherTracker,2013-05-25 20:05:00,
2013-05-25 15:10:00,89.2,50.8,30.16,SE,130,0.0,7.0,27,0.00,,,0.00,WeatherTracker,2013-05-25 20:10:00,
2013-05-25 15:15:00,89.3,49.9,30.16,ESE,123,1.0,7.0,26,0.00,,,0.00,WeatherTracker,2013-05-25 20:15:00,
2013-05-25 15:20:00,89.6,51.1,30.16,ENE,70,3.0,6.0,27,0.00,,,0.00,WeatherTracker,2013-05-25 20:20:00,
2013-05-25 15:25:00,89.7,50.2,30.16,SE,143,2.0,6.0,26,0.00,,,0.00,WeatherTracker,2013-05-25 20:25:00,
2013-05-25 15:35:00,89.2,50.8,30.16,East,100,0.0,6.0,27,0.00,,,0.00,WeatherTracker,2013-05-25 20:35:00,
2013-05-25 15:40:00,88.6,50.3,30.16,ENE,67,0.0,6.0,27,0.00,,,0.00,WeatherTracker,2013-05-25 20:40:00,
2013-05-25 15:45:00,88.5,51.2,30.16,NNE,24,2.0,6.0,28,0.00,,,0.00,WeatherTracker,2013-05-25 20:45:00,
2013-05-25 15:55:00,87.5,49.4,30.16,North,350,2.0,6.0,27,0.00,,,0.00,WeatherTracker,2013-05-25 20:55:00,
2013-05-25 16:00:00,87.1,50.9,30.16,NNE,27,4.0,4.0,29,0.00,,,0.00,WeatherTracker,2013-05-25 21:00:00,
2013-05-25 16:10:00,86.5,51.4,30.15,NNE,16,3.0,6.0,30,0.00,,,0.00,WeatherTracker,2013-05-25 21:10:00,
2013-05-25 16:15:00,86.1,51.0,30.15,NNE,17,3.0,6.0,30,0.00,,,0.00,WeatherTracker,2013-05-25 21:15:00,
2013-05-25 16:20:00,85.9,52.6,30.15,NE,46,2.0,5.0,32,0.00,,,0.00,WeatherTracker,2013-05-25 21:20:00,
2013-05-25 16:25:00,85.9,50.8,30.15,ENE,78,1.0,5.0,30,0.00,,,0.00,WeatherTracker,2013-05-25 21:25:00,
2013-05-25 16:35:00,85.4,52.2,30.15,NE,34,2.0,4.0,32,0.00,,,0.00,WeatherTracker,2013-05-25 21:35:00,
2013-05-25 16:40:00,85.3,51.2,30.15,NE,34,2.0,4.0,31,0.00,,,0.00,WeatherTracker,2013-05-25 21:40:00,
2013-05-25 16:45:00,85.2,52.8,30.15,NNE,33,4.0,4.0,33,0.00,,,0.00,WeatherTracker,2013-05-25 21:45:00,
2013-05-25 16:55:00,84.9,51.7,30.15,NE,34,1.0,4.0,32,0.00,,,0.00,WeatherTracker,2013-05-25 21:55:00,
2013-05-25 17:00:00,84.8,54.1,30.15,NE,34,1.0,4.0,35,0.00,,,0.00,WeatherTracker,2013-05-25 22:00:00,
2013-05-25 17:10:00,85.0,52.6,30.15,NE,34,2.0,4.0,33,0.00,,,0.00,WeatherTracker,2013-05-25 22:10:00,
2013-05-25 17:15:00,84.9,52.6,30.15,NE,34,1.0,4.0,33,0.00,,,0.00,WeatherTracker,2013-05-25 22:15:00,
2013-05-25 17:25:00,84.7,54.0,30.15,NE,34,2.0,3.0,35,0.00,,,0.00,WeatherTracker,2013-05-25 22:25:00,
2013-05-25 17:35:00,84.3,57.3,30.16,NE,34,1.0,3.0,40,0.00,,,0.00,WeatherTracker,2013-05-25 22:35:00,
2013-05-25 17:45:00,84.1,57.1,30.16,NE,34,0.0,2.0,40,0.00,,,0.00,WeatherTracker,2013-05-25 22:45:00,
2013-05-25 17:55:00,84.1,57.8,30.15,NE,34,0.0,2.0,41,0.00,,,0.00,WeatherTracker,2013-05-25 22:55:00,
2013-05-25 18:05:00,83.5,59.9,30.15,NE,34,4.0,4.0,45,0.00,,,0.00,WeatherTracker,2013-05-25 23:05:00,
2013-05-25 18:15:00,82.5,62.0,30.15,NNE,33,3.0,5.0,50,0.00,,,0.00,WeatherTracker,2013-05-25 23:15:00,
2013-05-25 18:20:00,81.9,61.4,30.15,NE,49,0.0,5.0,50,0.00,,,0.00,WeatherTracker,2013-05-25 23:20:00,
2013-05-25 18:30:00,81.2,60.8,30.14,NNE,32,1.0,5.0,50,0.00,,,0.00,WeatherTracker,2013-05-25 23:30:00,
2013-05-25 18:40:00,80.7,61.4,30.15,NNE,32,1.0,4.0,52,0.00,,,0.00,WeatherTracker,2013-05-25 23:40:00,
2013-05-25 18:50:00,80.2,61.5,30.15,NNE,32,0.0,3.0,53,0.00,,,0.00,WeatherTracker,2013-05-25 23:50:00,
2013-05-25 18:55:00,80.0,60.8,30.15,NNE,32,1.0,2.0,52,0.00,,,0.00,WeatherTracker,2013-05-25 23:55:00,
2013-05-25 19:05:00,79.2,59.5,30.15,NNE,32,0.0,4.0,51,0.00,,,0.00,WeatherTracker,2013-05-26 00:05:00,
2013-05-25 19:15:00,78.6,60.0,30.14,NNE,32,0.0,2.0,53,0.00,,,0.00,WeatherTracker,2013-05-26 00:15:00,
2013-05-25 19:20:00,78.3,60.3,30.15,NNE,32,0.0,2.0,54,0.00,,,0.00,WeatherTracker,2013-05-26 00:20:00,
2013-05-25 19:25:00,78.1,60.1,30.14,NNE,32,0.0,0.0,54,0.00,,,0.00,WeatherTracker,2013-05-26 00:25:00,
2013-05-25 19:30:00,77.8,59.8,30.15,NNE,32,0.0,0.0,54,0.00,,,0.00,WeatherTracker,2013-05-26 00:30:00,
2013-05-25 19:40:00,77.3,58.8,30.14,North,5,0.0,0.0,53,0.00,,,0.00,WeatherTracker,2013-05-26 00:40:00,
2013-05-25 19:50:00,76.5,56.5,30.14,North,5,0.0,0.0,50,0.00,,,0.00,WeatherTracker,2013-05-26 00:50:00,
2013-05-25 19:55:00,76.0,56.0,30.14,North,5,1.0,0.0,50,0.00,,,0.00,WeatherTracker,2013-05-26 00:55:00,
2013-05-25 20:05:00,75.6,55.1,30.14,North,5,0.0,3.0,49,0.00,,,0.00,WeatherTracker,2013-05-26 01:05:00,
2013-05-25 20:10:00,75.4,54.9,30.14,North,5,0.0,1.0,49,0.00,,,0.00,WeatherTracker,2013-05-26 01:10:00,
2013-05-25 20:20:00,75.0,55.1,30.14,North,5,0.0,0.0,50,0.00,,,0.00,WeatherTracker,2013-05-26 01:20:00,
2013-05-25 20:25:00,74.6,55.3,30.15,North,5,0.0,0.0,51,0.00,,,0.00,WeatherTracker,2013-05-26 01:25:00,
2013-05-25 20:35:00,73.8,55.1,30.15,North,5,0.0,0.0,52,0.00,,,0.00,WeatherTracker,2013-05-26 01:35:00,
2013-05-25 20:40:00,73.3,54.6,30.15,North,5,0.0,0.0,52,0.00,,,0.00,WeatherTracker,2013-05-26 01:40:00,
2013-05-25 20:50:00,72.5,53.3,30.15,North,5,0.0,0.0,51,0.00,,,0.00,WeatherTracker,2013-05-26 01:50:00,
2013-05-25 20:55:00,72.3,53.7,30.15,North,5,0.0,0.0,52,0.00,,,0.00,WeatherTracker,2013-05-26 01:55:00,
2013-05-25 21:00:00,72.0,53.9,30.15,North,5,0.0,0.0,53,0.00,,,0.00,WeatherTracker,2013-05-26 02:00:00,
2013-05-25 21:05:00,71.7,55.2,30.15,North,5,0.0,0.0,56,0.00,,,0.00,WeatherTracker,2013-05-26 02:05:00,
2013-05-25 21:10:00,71.3,55.3,30.15,North,5,0.0,0.0,57,0.00,,,0.00,WeatherTracker,2013-05-26 02:10:00,
2013-05-25 21:20:00,70.5,53.0,30.16,North,5,0.0,0.0,54,0.00,,,0.00,WeatherTracker,2013-05-26 02:20:00,
2013-05-25 21:30:00,69.7,53.3,30.16,North,5,0.0,0.0,56,0.00,,,0.00,WeatherTracker,2013-05-26 02:30:00,
2013-05-25 21:40:00,69.0,53.6,30.16,North,5,0.0,0.0,58,0.00,,,0.00,WeatherTracker,2013-05-26 02:40:00,
2013-05-25 21:50:00,68.4,54.0,30.17,North,5,0.0,0.0,60,0.00,,,0.00,WeatherTracker,2013-05-26 02:50:00,
2013-05-25 22:00:00,68.3,54.8,30.17,North,5,0.0,2.0,62,0.00,,,0.00,WeatherTracker,2013-05-26 03:00:00,
2013-05-25 22:05:00,68.6,55.1,30.17,North,5,0.0,2.0,62,0.00,,,0.00,WeatherTracker,2013-05-26 03:05:00,
2013-05-25 22:10:00,68.9,54.9,30.17,North,5,2.0,2.0,61,0.00,,,0.00,WeatherTracker,2013-05-26 03:10:00,
2013-05-25 22:15:00,69.3,55.7,30.17,North,5,1.0,2.0,62,0.00,,,0.00,WeatherTracker,2013-05-26 03:15:00,
2013-05-25 22:20:00,69.5,55.9,30.17,North,5,0.0,2.0,62,0.00,,,0.00,WeatherTracker,2013-05-26 03:20:00,
2013-05-25 22:30:00,69.5,55.0,30.17,North,5,0.0,1.0,60,0.00,,,0.00,WeatherTracker,2013-05-26 03:30:00,
2013-05-25 22:35:00,69.4,54.4,30.17,North,5,0.0,0.0,59,0.00,,,0.00,WeatherTracker,2013-05-26 03:35:00,
2013-05-25 22:40:00,69.3,54.3,30.17,North,5,0.0,0.0,59,0.00,,,0.00,WeatherTracker,2013-05-26 03:40:00,
2013-05-25 22:50:00,69.2,54.3,30.17,North,5,0.0,0.0,59,0.00,,,0.00,WeatherTracker,2013-05-26 03:50:00,
2013-05-25 22:55:00,69.0,54.1,30.17,North,5,0.0,0.0,59,0.00,,,0.00,WeatherTracker,2013-05-26 03:55:00,
2013-05-25 23:05:00,68.6,54.2,30.17,North,5,0.0,0.0,60,0.00,,,0.00,WeatherTracker,2013-05-26 04:05:00,
2013-05-25 23:10:00,68.7,53.8,30.17,North,5,1.0,3.0,59,0.00,,,0.00,WeatherTracker,2013-05-26 04:10:00,
2013-05-25 23:15:00,68.8,54.8,30.17,North,5,2.0,3.0,61,0.00,,,0.00,WeatherTracker,2013-05-26 04:15:00,
2013-05-25 23:20:00,68.7,55.6,30.17,NNE,16,2.0,4.0,63,0.00,,,0.00,WeatherTracker,2013-05-26 04:20:00,
2013-05-25 23:25:00,68.3,56.1,30.17,NNE,16,1.0,4.0,65,0.00,,,0.00,WeatherTracker,2013-05-26 04:25:00,
2013-05-25 23:35:00,67.5,57.4,30.16,NNE,16,0.0,3.0,70,0.00,,,0.00,WeatherTracker,2013-05-26 04:35:00,
2013-05-25 23:40:00,67.3,57.2,30.16,NNE,16,0.0,3.0,70,0.00,,,0.00,WeatherTracker,2013-05-26 04:40:00,
2013-05-25 23:50:00,66.7,56.2,30.16,NNE,16,0.0,0.0,69,0.00,,,0.00,WeatherTracker,2013-05-26 04:50:00,